createdAt,value
2023-02-14T00:01:40.853Z,102631.59
2023-02-14T00:04:10.426Z,102628.13
2023-02-14T00:06:39.276Z,102605.53
2023-02-14T00:09:08.523Z,102576.72
2023-02-14T00:11:36.683Z,102596.72
2023-02-14T00:14:22.489Z,102612.38
2023-02-14T00:16:51.314Z,102608.78
2023-02-14T00:19:22.016Z,102607.00
2023-02-14T00:21:50.722Z,102602.81
2023-02-14T00:24:22.042Z,102601.09
2023-02-14T00:26:50.758Z,102592.47
2023-02-14T00:29:22.307Z,102597.00
2023-02-14T00:31:50.304Z,102597.09
2023-02-14T00:34:20.452Z,102597.00
2023-02-14T00:36:48.839Z,102594.47
2023-02-14T00:39:17.611Z,102584.19
2023-02-14T00:41:45.909Z,102588.63
2023-02-14T00:44:15.406Z,102585.03
2023-02-14T00:46:43.635Z,102580.81
2023-02-14T00:49:11.795Z,102588.81
2023-02-14T00:51:41.463Z,102592.41
2023-02-14T00:54:09.633Z,102587.97
2023-02-14T00:56:37.848Z,102581.91
2023-02-14T00:59:06.062Z,102588.81
2023-02-14T01:01:34.313Z,102582.09
2023-02-14T01:04:02.986Z,102570.63
2023-02-14T01:06:31.663Z,102562.75
2023-02-14T01:09:01.554Z,102574.94
2023-02-14T01:11:30.416Z,102562.56
2023-02-14T01:13:59.618Z,102549.31
2023-02-14T01:16:29.533Z,102548.25
2023-02-14T01:18:59.494Z,102545.53
2023-02-14T01:21:29.613Z,102537.53
2023-02-14T01:24:01.846Z,102538.16
2023-02-14T01:26:30.966Z,102556.34
2023-02-14T01:28:59.168Z,102546.56
2023-02-14T01:31:29.800Z,102549.94
2023-02-14T01:33:59.009Z,102566.44
2023-02-14T01:36:29.759Z,102549.72
2023-02-14T01:39:02.401Z,102533.75
2023-02-14T01:41:33.435Z,102536.25
2023-02-14T01:44:03.680Z,102531.00
2023-02-14T01:46:34.763Z,102529.81
2023-02-14T01:49:07.318Z,102539.38
2023-02-14T01:51:39.302Z,102540.97
2023-02-14T01:54:10.366Z,102550.38
2023-02-14T01:56:43.350Z,102550.38
2023-02-14T01:59:17.054Z,102550.31
2023-02-14T02:01:46.492Z,102552.94
2023-02-14T02:04:18.996Z,102540.63
2023-02-14T02:06:50.865Z,102536.31
2023-02-14T02:09:26.604Z,102538.34
2023-02-14T02:11:54.850Z,102535.59
2023-02-14T02:14:24.220Z,102528.66
2023-02-14T02:17:13.815Z,102526.97
2023-02-14T02:20:13.218Z,102528.78
2023-02-14T02:23:21.232Z,102534.38
2023-02-14T02:26:22.944Z,102523.22
2023-02-14T02:29:21.676Z,102522.50
2023-02-14T02:32:19.564Z,102525.97
2023-02-14T02:35:27.399Z,102525.72
2023-02-14T02:38:08.786Z,102523.59
2023-02-14T02:40:49.009Z,102519.09
2023-02-14T02:43:30.065Z,102522.09
2023-02-14T02:46:20.861Z,102507.31
2023-02-14T02:48:58.306Z,102510.56
2023-02-14T02:51:53.398Z,102503.38
2023-02-14T02:54:31.029Z,102488.34
2023-02-14T02:57:01.409Z,102493.63
2023-02-14T02:59:32.568Z,102500.75
2023-02-14T03:02:06.575Z,102500.88
2023-02-14T03:04:53.358Z,102503.63
2023-02-14T03:07:39.506Z,102500.38
2023-02-14T03:10:13.449Z,102489.75
2023-02-14T03:13:20.551Z,102486.91
2023-02-14T03:15:56.465Z,102504.00
2023-02-14T03:18:40.609Z,102499.59
2023-02-14T03:21:15.932Z,102505.47
2023-02-14T03:23:55.343Z,102500.81
2023-02-14T03:26:30.861Z,102494.94
2023-02-14T03:29:04.079Z,102483.34
2023-02-14T03:31:38.705Z,102483.13
2023-02-14T03:34:12.763Z,102478.94
2023-02-14T03:36:48.766Z,102464.84
2023-02-14T03:39:25.602Z,102457.31
2023-02-14T03:42:06.105Z,102456.00
2023-02-14T03:44:36.591Z,102449.09
2023-02-14T03:47:10.205Z,102447.16
2023-02-14T03:49:42.209Z,102435.94
2023-02-14T03:52:12.857Z,102433.91
2023-02-14T03:54:43.352Z,102426.75
2023-02-14T03:57:18.156Z,102420.75
2023-02-14T03:59:46.679Z,102416.47
2023-02-14T04:02:19.921Z,102412.38
2023-02-14T04:04:50.831Z,102398.41
2023-02-14T04:07:20.439Z,102393.06
2023-02-14T04:09:51.061Z,102384.31
2023-02-14T04:12:32.237Z,102390.19
2023-02-14T04:15:06.090Z,102389.47
2023-02-14T04:17:51.521Z,102378.81
2023-02-14T04:20:20.306Z,102375.25
2023-02-14T04:22:48.571Z,102362.22
2023-02-14T04:25:18.755Z,102348.84
2023-02-14T04:27:47.304Z,102351.59
2023-02-14T04:30:18.132Z,102347.06
2023-02-14T04:32:46.709Z,102365.13
2023-02-14T04:35:15.197Z,102358.06
2023-02-14T04:37:43.803Z,102343.81
2023-02-14T04:40:16.984Z,102344.78
2023-02-14T04:42:47.033Z,102343.13
2023-02-14T04:45:16.060Z,102343.81
2023-02-14T04:47:44.333Z,102337.50
2023-02-14T04:50:12.732Z,102360.22
2023-02-14T04:52:41.142Z,102338.13
2023-02-14T04:55:10.845Z,102341.47
2023-02-14T04:57:39.069Z,102332.59
2023-02-14T05:00:10.049Z,102335.97
2023-02-14T05:02:38.575Z,102345.66
2023-02-14T05:05:07.516Z,102357.63
2023-02-14T05:07:35.962Z,102357.84
2023-02-14T05:10:05.055Z,102349.94
2023-02-14T05:12:33.705Z,102336.81
2023-02-14T05:15:01.859Z,102341.22
2023-02-14T05:17:31.514Z,102339.31
2023-02-14T05:19:59.752Z,102334.31
2023-02-14T05:22:28.021Z,102331.53
2023-02-14T05:24:56.498Z,102326.28
2023-02-14T05:27:24.716Z,102328.78
2023-02-14T05:29:52.993Z,102320.66
2023-02-14T05:32:21.271Z,102323.31
2023-02-14T05:34:50.902Z,102321.50
2023-02-14T05:37:19.150Z,102308.22
2023-02-14T05:39:47.398Z,102316.13
2023-02-14T05:42:15.767Z,102303.56
2023-02-14T05:44:43.954Z,102298.19
2023-02-14T05:47:13.186Z,102298.19
2023-02-14T05:49:41.474Z,102290.19
2023-02-14T05:52:11.450Z,102289.34
2023-02-14T05:54:39.769Z,102287.44
2023-02-14T05:57:08.072Z,102275.94
2023-02-14T05:59:36.181Z,102279.53
2023-02-14T06:02:04.373Z,102286.38
2023-02-14T06:04:32.755Z,102280.25
2023-02-14T06:07:00.946Z,102281.94
2023-02-14T06:09:30.657Z,102272.13
2023-02-14T06:11:59.408Z,102272.84
2023-02-14T06:14:27.873Z,102274.53
2023-02-14T06:16:56.117Z,102279.88
2023-02-14T06:19:24.296Z,102287.53
2023-02-14T06:21:52.401Z,102284.06
2023-02-14T06:24:20.691Z,102269.25
2023-02-14T06:26:50.448Z,102261.25
2023-02-14T06:29:19.098Z,102254.19
2023-02-14T06:31:47.360Z,102254.31
2023-02-14T06:34:16.305Z,102258.47
2023-02-14T06:36:44.934Z,102253.94
2023-02-14T06:39:13.215Z,102251.44
2023-02-14T06:41:41.424Z,102247.72
2023-02-14T06:44:11.253Z,102258.25
2023-02-14T06:46:39.367Z,102252.00
2023-02-14T06:49:07.510Z,102257.41
2023-02-14T06:51:35.814Z,102256.44
2023-02-14T06:54:03.878Z,102257.03
2023-02-14T06:56:32.067Z,102252.47
2023-02-14T06:59:00.253Z,102245.31
2023-02-14T07:01:30.067Z,102248.66
2023-02-14T07:03:58.340Z,102239.22
2023-02-14T07:06:26.747Z,102236.31
2023-02-14T07:08:54.919Z,102232.16
2023-02-14T07:11:23.075Z,102239.78
2023-02-14T07:13:51.212Z,102248.66
2023-02-14T07:16:19.399Z,102245.06
2023-02-14T07:18:49.236Z,102240.38
2023-02-14T07:21:17.445Z,102239.31
2023-02-14T07:23:47.813Z,102235.72
2023-02-14T07:26:18.304Z,102241.69
2023-02-14T07:28:48.925Z,102242.41
2023-02-14T07:31:18.512Z,102228.75
2023-02-14T07:33:48.171Z,102228.59
2023-02-14T07:36:16.375Z,102235.28
2023-02-14T07:38:44.510Z,102234.22
2023-02-14T07:41:12.727Z,102233.13
2023-02-14T07:43:40.953Z,102237.31
2023-02-14T07:46:09.189Z,102233.47
2023-02-14T07:48:39.408Z,102231.22
2023-02-14T07:51:09.125Z,102239.69
2023-02-14T07:53:37.369Z,102235.13
2023-02-14T07:56:05.818Z,102229.88
2023-02-14T07:58:34.087Z,102234.91
2023-02-14T08:01:02.549Z,102221.59
2023-02-14T08:03:30.700Z,102221.47
2023-02-14T08:05:58.880Z,102216.09
2023-02-14T08:08:30.617Z,102219.28
2023-02-14T08:10:59.839Z,102225.50
2023-02-14T08:13:28.277Z,102227.19
2023-02-14T08:16:09.814Z,102231.50
2023-02-14T08:18:38.632Z,102232.19
2023-02-14T08:21:08.523Z,102222.41
2023-02-14T08:23:39.157Z,102216.25
2023-02-14T08:26:07.581Z,102217.81
2023-02-14T08:28:36.246Z,102218.50
2023-02-14T08:31:05.403Z,102205.94
2023-02-14T08:33:33.880Z,102194.31
2023-02-14T08:36:02.718Z,102199.31
2023-02-14T08:38:30.932Z,102187.44
2023-02-14T08:41:06.751Z,102191.59
2023-02-14T08:43:36.335Z,102180.56
2023-02-14T08:46:04.995Z,102176.72
2023-02-14T08:48:33.245Z,102178.72
2023-02-14T08:51:05.560Z,102159.16
2023-02-14T08:53:33.812Z,102175.53
2023-02-14T08:56:06.171Z,102171.81
2023-02-14T08:58:35.904Z,102156.69
2023-02-14T09:01:10.480Z,102161.00
2023-02-14T09:03:39.157Z,102153.22
2023-02-14T09:06:08.966Z,102157.53
2023-02-14T09:08:38.552Z,102146.88
2023-02-14T09:11:14.183Z,102146.88
2023-02-14T09:13:42.698Z,102136.19
2023-02-14T09:16:13.342Z,102134.13
2023-02-14T09:18:41.930Z,102137.44
2023-02-14T09:21:12.079Z,102137.06
2023-02-14T09:23:40.793Z,102135.41
2023-02-14T09:26:12.781Z,102121.81
2023-02-14T09:28:41.169Z,102124.31
2023-02-14T09:31:11.306Z,102120.28
2023-02-14T09:33:40.151Z,102125.56
2023-02-14T09:36:26.552Z,102135.28
2023-02-14T09:38:54.654Z,102115.03
2023-02-14T09:41:59.473Z,102132.78
2023-02-14T09:44:35.196Z,102129.16
2023-02-14T09:47:08.914Z,102144.03
2023-02-14T09:49:40.888Z,102129.38
2023-02-14T09:52:15.786Z,102132.03
2023-02-14T09:54:48.268Z,102118.44
2023-02-14T09:57:26.013Z,102095.06
2023-02-14T09:59:59.075Z,102093.53
2023-02-14T10:02:40.548Z,102098.69
2023-02-14T10:05:15.524Z,102098.13
2023-02-14T10:07:59.219Z,102096.16
2023-02-14T10:10:32.892Z,102097.56
2023-02-14T10:13:08.813Z,102098.13
2023-02-14T10:15:41.889Z,102099.81
2023-02-14T10:18:16.059Z,102095.91
2023-02-14T10:20:47.707Z,102081.13
2023-02-14T10:23:23.811Z,102098.25
2023-02-14T10:25:57.682Z,102096.59
2023-02-14T10:28:33.322Z,102107.97
2023-02-14T10:31:17.008Z,102111.31
2023-02-14T10:33:50.884Z,102107.84
2023-02-14T10:36:31.451Z,102104.94
2023-02-14T10:39:07.076Z,102106.59
2023-02-14T10:41:45.299Z,102129.00
2023-02-14T10:44:32.110Z,102128.69
2023-02-14T10:47:05.851Z,102142.16
2023-02-14T10:49:45.470Z,102145.28
2023-02-14T10:52:20.748Z,102139.97
2023-02-14T10:54:56.410Z,102145.53
2023-02-14T10:57:29.941Z,102136.31
2023-02-14T11:00:02.804Z,102135.34
2023-02-14T11:02:35.277Z,102141.44
2023-02-14T11:05:05.804Z,102137.69
2023-02-14T11:07:34.220Z,102140.19
2023-02-14T11:10:03.129Z,102130.66
2023-02-14T11:12:37.588Z,102140.03
2023-02-14T11:15:22.905Z,102138.03
2023-02-14T11:18:08.516Z,102137.44
2023-02-14T11:20:36.806Z,102147.19
2023-02-14T11:23:20.072Z,102159.38
2023-02-14T11:25:52.737Z,102158.38
2023-02-14T11:28:21.732Z,102170.09
2023-02-14T11:30:52.712Z,102172.53
2023-02-14T11:33:34.927Z,102169.06
2023-02-14T11:36:06.347Z,102188.16
2023-02-14T11:38:38.405Z,102180.09
2023-02-14T11:41:09.429Z,102173.56
2023-02-14T11:43:43.136Z,102175.66
2023-02-14T11:46:17.814Z,102181.94
2023-02-14T11:49:05.166Z,102166.81
2023-02-14T11:51:36.998Z,102173.00
2023-02-14T11:54:07.425Z,102157.03
2023-02-14T11:56:49.221Z,102156.84
2023-02-14T11:59:27.792Z,102150.25
2023-02-14T12:01:59.138Z,102136.56
2023-02-14T12:04:45.687Z,102141.81
2023-02-14T12:07:17.436Z,102133.97
2023-02-14T12:09:47.521Z,102125.53
2023-02-14T12:12:27.741Z,102117.94
2023-02-14T12:15:24.357Z,102119.00
2023-02-14T12:18:00.287Z,102103.56
2023-02-14T12:20:36.995Z,102103.53
2023-02-14T12:23:10.911Z,102091.50
2023-02-14T12:25:45.763Z,102098.28
2023-02-14T12:28:21.438Z,102097.63
2023-02-14T12:30:51.381Z,102098.09
2023-02-14T12:33:23.582Z,102104.09
2023-02-14T12:36:01.784Z,102105.69
2023-02-14T12:38:42.072Z,102110.47
2023-02-14T12:41:26.602Z,102107.59
2023-02-14T12:43:56.329Z,102120.13
2023-02-14T12:46:47.808Z,102124.75
2023-02-14T12:49:49.580Z,102116.81
2023-02-14T12:52:39.910Z,102127.53
2023-02-14T12:55:40.909Z,102130.16
2023-02-14T12:58:23.437Z,102115.72
2023-02-14T13:01:02.532Z,102115.06
2023-02-14T13:04:06.623Z,102111.03
2023-02-14T13:06:38.604Z,102101.56
2023-02-14T13:09:17.662Z,102109.38
2023-02-14T13:11:55.632Z,102101.06
2023-02-14T13:14:43.644Z,102107.03
2023-02-14T13:17:20.518Z,102094.09
2023-02-14T13:19:57.348Z,102103.28
2023-02-14T13:22:30.302Z,102098.72
2023-02-14T13:25:02.682Z,102092.44
2023-02-14T13:27:34.602Z,102090.78
2023-02-14T13:30:07.555Z,102086.16
2023-02-14T13:32:41.766Z,102091.53
2023-02-14T13:35:17.764Z,102082.25
2023-02-14T13:37:54.929Z,102082.09
2023-02-14T13:40:26.778Z,102082.34
2023-02-14T13:42:57.209Z,102075.22
2023-02-14T13:45:53.835Z,102075.88
2023-02-14T13:48:24.761Z,102074.94
2023-02-14T13:50:57.032Z,102071.97
2023-02-14T13:53:47.716Z,102085.97
2023-02-14T13:56:36.112Z,102070.25
2023-02-14T13:59:07.136Z,102066.34
2023-02-14T14:01:40.807Z,102077.00
2023-02-14T14:04:36.298Z,102071.06
2023-02-14T14:07:23.304Z,102079.19
2023-02-14T14:10:13.075Z,102082.47
2023-02-14T14:12:45.475Z,102088.22
2023-02-14T14:15:19.262Z,102086.50
2023-02-14T14:17:51.226Z,102107.13
2023-02-14T14:20:45.282Z,102123.47
2023-02-14T14:23:38.594Z,102105.41
2023-02-14T14:26:39.636Z,102103.91
2023-02-14T14:29:16.335Z,102112.81
2023-02-14T14:31:44.675Z,102132.22
2023-02-14T14:34:18.995Z,102125.75
2023-02-14T14:36:47.692Z,102129.41
2023-02-14T14:39:28.040Z,102126.59
2023-02-14T14:42:07.003Z,102133.69
2023-02-14T14:44:36.697Z,102121.75
2023-02-14T14:47:04.811Z,102107.84
2023-02-14T14:49:34.044Z,102105.50
2023-02-14T14:52:02.276Z,102112.03
2023-02-14T14:54:32.847Z,102099.13
2023-02-14T14:57:03.798Z,102103.56
2023-02-14T14:59:35.701Z,102108.72
2023-02-14T15:02:05.679Z,102108.03
2023-02-14T15:04:35.498Z,102093.28
2023-02-14T15:07:20.327Z,102098.66
2023-02-14T15:09:48.594Z,102107.28
2023-02-14T15:12:46.480Z,102111.34
2023-02-14T15:15:17.337Z,102116.19
2023-02-14T15:17:47.321Z,102114.53
2023-02-14T15:20:18.924Z,102123.47
2023-02-14T15:22:49.605Z,102118.31
2023-02-14T15:25:21.547Z,102114.16
2023-02-14T15:27:52.069Z,102102.06
2023-02-14T15:30:26.639Z,102108.16
2023-02-14T15:32:55.513Z,102106.50
2023-02-14T15:35:26.748Z,102112.47
2023-02-14T15:37:56.042Z,102108.03
2023-02-14T15:40:27.331Z,102107.88
2023-02-14T15:42:57.568Z,102124.88
2023-02-14T15:45:31.803Z,102114.81
2023-02-14T15:48:03.527Z,102109.38
2023-02-14T15:50:34.149Z,102119.13
2023-02-14T15:53:06.975Z,102112.72
2023-02-14T15:55:37.235Z,102109.91
2023-02-14T15:58:12.737Z,102108.94
2023-02-14T16:00:44.442Z,102109.78
2023-02-14T16:03:21.154Z,102110.28
2023-02-14T16:05:50.556Z,102105.69
2023-02-14T16:08:29.663Z,102101.06
2023-02-14T16:11:03.328Z,102097.38
2023-02-14T16:13:37.471Z,102095.41
2023-02-14T16:16:07.692Z,102103.50
2023-02-14T16:18:39.255Z,102105.63
2023-02-14T16:21:14.799Z,102100.22
2023-02-14T16:23:44.812Z,102104.31
2023-02-14T16:26:14.022Z,102098.81
2023-02-14T16:28:43.613Z,102087.69
2023-02-14T16:31:16.509Z,102093.56
2023-02-14T16:33:46.417Z,102092.50
2023-02-14T16:36:20.812Z,102091.72
2023-02-14T16:38:50.043Z,102098.88
2023-02-14T16:41:20.487Z,102087.91
2023-02-14T16:43:50.495Z,102077.22
2023-02-14T16:46:21.939Z,102077.66
2023-02-14T16:48:52.380Z,102077.88
2023-02-14T16:51:24.586Z,102071.88
2023-02-14T16:53:53.372Z,102068.84
2023-02-14T16:56:25.115Z,102054.84
2023-02-14T16:58:57.911Z,102060.00
2023-02-14T17:01:26.914Z,102056.16
2023-02-14T17:03:55.796Z,102065.31
2023-02-14T17:06:27.976Z,102056.81
2023-02-14T17:08:58.443Z,102057.13
2023-02-14T17:11:28.329Z,102063.09
2023-02-14T17:13:58.087Z,102063.81
2023-02-14T17:16:26.174Z,102053.66
2023-02-14T17:18:54.716Z,102055.78
2023-02-14T17:21:24.362Z,102052.19
2023-02-14T17:23:52.651Z,102053.59
2023-02-14T17:26:20.764Z,102053.84
2023-02-14T17:28:48.952Z,102044.28
2023-02-14T17:31:18.828Z,102041.63
2023-02-14T17:33:47.329Z,102040.69
2023-02-14T17:36:15.875Z,102041.94
2023-02-14T17:38:45.009Z,102050.41
2023-02-14T17:41:15.029Z,102045.53
2023-02-14T17:43:43.254Z,102041.38
2023-02-14T17:46:11.686Z,102040.28
2023-02-14T17:48:41.355Z,102038.72
2023-02-14T17:51:10.870Z,102054.03
2023-02-14T17:53:41.766Z,102050.25
2023-02-14T17:56:11.946Z,102051.81
2023-02-14T17:58:40.712Z,102061.63
2023-02-14T18:01:11.507Z,102049.44
2023-02-14T18:03:41.968Z,102058.44
2023-02-14T18:06:11.418Z,102057.91
2023-02-14T18:08:41.900Z,102053.47
2023-02-14T18:11:11.761Z,102044.31
2023-02-14T18:13:40.272Z,102046.22
2023-02-14T18:16:10.420Z,102043.44
2023-02-14T18:18:40.262Z,102038.59
2023-02-14T18:21:10.354Z,102038.72
2023-02-14T18:23:38.811Z,102035.41
2023-02-14T18:26:08.981Z,102032.06
2023-02-14T18:28:37.340Z,102036.66
2023-02-14T18:31:06.262Z,102032.63
2023-02-14T18:33:34.778Z,102034.84
2023-02-14T18:36:05.134Z,102040.09
2023-02-14T18:38:33.317Z,102042.03
2023-02-14T18:41:04.093Z,102035.41
2023-02-14T18:43:32.712Z,102038.16
2023-02-14T18:46:04.281Z,102043.41
2023-02-14T18:48:32.590Z,102054.50
2023-02-14T18:51:07.690Z,102053.69
2023-02-14T18:53:36.225Z,102048.41
2023-02-14T18:56:07.994Z,102043.97
2023-02-14T18:58:36.906Z,102043.13
2023-02-14T19:01:09.536Z,102042.31
2023-02-14T19:03:37.700Z,102040.66
2023-02-14T19:06:07.841Z,102050.34
2023-02-14T19:08:37.662Z,102052.97
2023-02-14T19:11:06.188Z,102053.69
2023-02-14T19:13:34.398Z,102046.47
2023-02-14T19:16:02.640Z,102050.06
2023-02-14T19:18:30.933Z,102053.53
2023-02-14T19:20:59.286Z,102051.19
2023-02-14T19:23:28.892Z,102044.13
2023-02-14T19:25:57.038Z,102055.50
2023-02-14T19:28:25.997Z,102058.69
2023-02-14T19:30:54.192Z,102060.47
2023-02-14T19:33:22.370Z,102059.53
2023-02-14T19:36:00.298Z,102052.56
2023-02-14T19:38:30.649Z,102050.66
2023-02-14T19:40:59.390Z,102048.28
2023-02-14T19:43:27.664Z,102053.69
2023-02-14T19:45:55.980Z,102050.06
2023-02-14T19:48:24.288Z,102058.13
2023-02-14T19:50:54.166Z,102064.91
2023-02-14T19:53:22.400Z,102064.22
2023-02-14T19:55:51.887Z,102053.13
2023-02-14T19:58:20.113Z,102054.78
2023-02-14T20:00:57.437Z,102059.22
2023-02-14T20:03:27.259Z,102061.75
2023-02-14T20:05:55.398Z,102061.75
2023-02-14T20:08:23.619Z,102066.28
2023-02-14T20:10:53.983Z,102076.69
2023-02-14T20:13:22.202Z,102066.16
2023-02-14T20:15:50.367Z,102072.41
2023-02-14T20:18:18.541Z,102066.44
2023-02-14T20:21:03.188Z,102064.78
2023-02-14T20:23:33.575Z,102069.19
2023-02-14T20:26:03.155Z,102070.16
2023-02-14T20:28:31.388Z,102071.13
2023-02-14T20:30:59.984Z,102069.47
2023-02-14T20:33:28.302Z,102069.47
2023-02-14T20:35:56.470Z,102074.75
2023-02-14T20:38:26.970Z,102070.31
2023-02-14T20:40:55.120Z,102067.66
2023-02-14T20:43:26.613Z,102062.25
2023-02-14T20:46:00.160Z,102053.66
2023-02-14T20:48:28.720Z,102050.31
2023-02-14T20:50:56.898Z,102041.03
2023-02-14T20:53:26.045Z,102042.38
2023-02-14T20:55:54.477Z,102041.97
2023-02-14T20:58:22.623Z,102038.41
2023-02-14T21:00:52.207Z,102033.97
2023-02-14T21:03:20.343Z,102033.41
2023-02-14T21:05:49.460Z,102039.34
2023-02-14T21:08:17.509Z,102038.66
2023-02-14T21:10:45.842Z,102040.72
2023-02-14T21:13:13.906Z,102045.84
2023-02-14T21:15:42.183Z,102030.19
2023-02-14T21:18:11.910Z,102032.13
2023-02-14T21:20:40.083Z,102039.91
2023-02-14T21:23:08.661Z,102020.63
2023-02-14T21:25:36.825Z,102010.34
2023-02-14T21:28:04.966Z,102009.78
2023-02-14T21:30:33.247Z,101998.41
2023-02-14T21:33:01.423Z,101996.59
2023-02-14T21:35:31.092Z,101994.09
2023-02-14T21:37:59.144Z,101998.81
2023-02-14T21:40:27.189Z,101993.44
2023-02-14T21:42:55.344Z,102001.44
2023-02-14T21:45:41.235Z,101996.88
2023-02-14T21:48:26.903Z,102004.78
2023-02-14T21:50:56.476Z,101997.56
2023-02-14T21:53:24.570Z,102000.50
2023-02-14T21:55:52.709Z,102002.16
2023-02-14T21:58:20.852Z,101998.81
2023-02-14T22:00:49.213Z,101993.53
2023-02-14T22:03:17.276Z,101983.38
2023-02-14T22:05:45.397Z,101987.94
2023-02-14T22:08:14.985Z,101986.97
2023-02-14T22:10:43.098Z,101980.06
2023-02-14T22:13:11.246Z,101988.09
2023-02-14T22:15:41.335Z,101985.47
2023-02-14T22:18:09.424Z,101983.09
2023-02-14T22:20:37.588Z,101975.44
2023-02-14T22:23:05.705Z,101970.06
2023-02-14T22:25:35.375Z,101970.75
2023-02-14T22:28:04.021Z,101970.59
2023-02-14T22:30:32.177Z,101961.75
2023-02-14T22:33:00.687Z,101967.03
2023-02-14T22:35:29.305Z,101961.03
2023-02-14T22:37:57.423Z,101965.06
2023-02-14T22:40:25.543Z,101956.50
2023-02-14T22:42:55.534Z,101953.16
2023-02-14T22:45:23.640Z,101945.78
2023-02-14T22:47:51.780Z,101926.53
2023-02-14T22:50:20.126Z,101925.97
2023-02-14T22:52:48.237Z,101925.97
2023-02-14T22:55:16.431Z,101925.81
2023-02-14T22:57:44.705Z,101940.53
2023-02-14T23:00:15.523Z,101938.88
2023-02-14T23:02:43.786Z,101927.34
2023-02-14T23:05:12.200Z,101940.38
2023-02-14T23:07:40.403Z,101932.38
2023-02-14T23:10:12.491Z,101938.56
2023-02-14T23:12:57.976Z,101932.47
2023-02-14T23:15:45.202Z,101935.81
2023-02-14T23:18:31.916Z,101940.38
2023-02-14T23:21:17.310Z,101941.22
2023-02-14T23:23:45.434Z,101933.31
2023-02-14T23:26:14.290Z,101940.66
2023-02-14T23:28:42.467Z,101944.81
2023-02-14T23:31:12.093Z,101929.28
2023-02-14T23:33:40.308Z,101930.13
2023-02-14T23:36:08.784Z,101928.59
2023-02-14T23:38:36.950Z,101921.25
2023-02-14T23:41:27.769Z,101916.81
2023-02-14T23:43:56.009Z,101902.09
2023-02-14T23:46:25.584Z,101903.78
2023-02-14T23:48:53.767Z,101901.56
2023-02-14T23:51:21.943Z,101879.53
2023-02-14T23:53:50.188Z,101891.03
2023-02-14T23:56:18.386Z,101873.53
2023-02-14T23:58:46.554Z,101865.63
